sensor_id;sensor_type;location;lat;lon;timestamp;pressure;altitude;pressure_sealevel;temperature;humidity
49377;BME280;35253;34.688;33.040;2023-07-20T00:01:24;99824.19;;;29.54;74.82
49377;BME280;35253;34.688;33.040;2023-07-20T00:03:50;99815.16;;;29.65;71.32
49377;BME280;35253;34.688;33.040;2023-07-20T00:06:24;99818.84;;;29.71;69.56
49377;BME280;35253;34.688;33.040;2023-07-20T00:08:54;99813.63;;;29.81;67.60
49377;BME280;35253;34.688;33.040;2023-07-20T00:11:21;99815.31;;;29.82;67.46
49377;BME280;35253;34.688;33.040;2023-07-20T00:13:47;99810.66;;;29.82;67.83
49377;BME280;35253;34.688;33.040;2023-07-20T00:16:13;99819.66;;;29.89;67.83
49377;BME280;35253;34.688;33.040;2023-07-20T00:18:38;99813.78;;;29.97;68.05
49377;BME280;35253;34.688;33.040;2023-07-20T00:21:04;99811.78;;;30.05;66.96
49377;BME280;35253;34.688;33.040;2023-07-20T00:23:29;99819.06;;;30.11;66.51
49377;BME280;35253;34.688;33.040;2023-07-20T00:25:55;99820.97;;;29.98;65.57
49377;BME280;35253;34.688;33.040;2023-07-20T00:28:21;99820.63;;;29.95;63.35
49377;BME280;35253;34.688;33.040;2023-07-20T00:30:46;99811.41;;;29.89;62.15
49377;BME280;35253;34.688;33.040;2023-07-20T00:33:12;99805.47;;;29.92;61.58
49377;BME280;35253;34.688;33.040;2023-07-20T00:35:39;99812.84;;;29.92;61.40
49377;BME280;35253;34.688;33.040;2023-07-20T00:38:05;99814.06;;;29.96;61.58
49377;BME280;35253;34.688;33.040;2023-07-20T00:40:41;99802.44;;;29.94;60.34
49377;BME280;35253;34.688;33.040;2023-07-20T00:43:07;99812.47;;;29.88;59.90
49377;BME280;35253;34.688;33.040;2023-07-20T00:45:34;99817.56;;;29.85;61.79
49377;BME280;35253;34.688;33.040;2023-07-20T00:48:01;99805.91;;;29.89;63.47
49377;BME280;35253;34.688;33.040;2023-07-20T00:50:28;99815.66;;;29.85;64.37
49377;BME280;35253;34.688;33.040;2023-07-20T00:52:55;99812.34;;;29.83;61.51
49377;BME280;35253;34.688;33.040;2023-07-20T00:55:21;99816.38;;;29.81;61.41
49377;BME280;35253;34.688;33.040;2023-07-20T00:57:47;99814.16;;;29.48;62.76
49377;BME280;35253;34.688;33.040;2023-07-20T01:00:14;99811.28;;;29.43;64.03
49377;BME280;35253;34.688;33.040;2023-07-20T01:02:40;99823.59;;;29.22;64.48
49377;BME280;35253;34.688;33.040;2023-07-20T01:05:06;99826.75;;;29.07;65.38
49377;BME280;35253;34.688;33.040;2023-07-20T01:07:36;99819.72;;;29.30;65.21
49377;BME280;35253;34.688;33.040;2023-07-20T01:10:18;99820.50;;;29.48;66.53
49377;BME280;35253;34.688;33.040;2023-07-20T01:12:54;99819.81;;;29.53;67.41
49377;BME280;35253;34.688;33.040;2023-07-20T01:15:20;99824.16;;;29.42;65.55
49377;BME280;35253;34.688;33.040;2023-07-20T01:17:46;99819.03;;;29.46;65.89
49377;BME280;35253;34.688;33.040;2023-07-20T01:20:16;99818.34;;;29.50;66.76
49377;BME280;35253;34.688;33.040;2023-07-20T01:31:27;99823.06;;;29.73;65.22
49377;BME280;35253;34.688;33.040;2023-07-20T01:33:58;99816.09;;;29.59;64.18
49377;BME280;35253;34.688;33.040;2023-07-20T01:36:26;99821.09;;;29.62;61.64
49377;BME280;35253;34.688;33.040;2023-07-20T01:38:52;99823.34;;;29.53;60.35
49377;BME280;35253;34.688;33.040;2023-07-20T01:41:18;99815.88;;;29.61;60.27
49377;BME280;35253;34.688;33.040;2023-07-20T01:43:44;99815.50;;;29.57;59.12
49377;BME280;35253;34.688;33.040;2023-07-20T01:46:10;99824.25;;;29.66;59.80
49377;BME280;35253;34.688;33.040;2023-07-20T01:48:35;99823.75;;;29.57;60.24
49377;BME280;35253;34.688;33.040;2023-07-20T01:51:01;99821.59;;;29.59;59.67
49377;BME280;35253;34.688;33.040;2023-07-20T01:53:27;99818.00;;;29.59;59.59
49377;BME280;35253;34.688;33.040;2023-07-20T01:55:53;99822.78;;;29.51;58.16
49377;BME280;35253;34.688;33.040;2023-07-20T01:58:22;99825.75;;;29.50;58.10
49377;BME280;35253;34.688;33.040;2023-07-20T02:00:47;99819.19;;;29.51;58.44
49377;BME280;35253;34.688;33.040;2023-07-20T02:03:13;99819.81;;;29.53;59.27
49377;BME280;35253;34.688;33.040;2023-07-20T02:05:39;99817.97;;;29.47;57.58
49377;BME280;35253;34.688;33.040;2023-07-20T02:08:04;99813.41;;;29.41;57.01
49377;BME280;35253;34.688;33.040;2023-07-20T02:10:30;99824.38;;;29.41;56.91
49377;BME280;35253;34.688;33.040;2023-07-20T02:12:56;99820.69;;;29.35;57.75
49377;BME280;35253;34.688;33.040;2023-07-20T02:15:22;99815.56;;;29.39;58.21
49377;BME280;35253;34.688;33.040;2023-07-20T02:17:48;99808.88;;;29.35;57.78
49377;BME280;35253;34.688;33.040;2023-07-20T02:20:13;99814.34;;;29.35;58.14
49377;BME280;35253;34.688;33.040;2023-07-20T02:22:39;99811.75;;;29.40;59.04
49377;BME280;35253;34.688;33.040;2023-07-20T02:25:06;99814.59;;;29.45;59.98
49377;BME280;35253;34.688;33.040;2023-07-20T02:27:35;99809.13;;;29.45;60.40
49377;BME280;35253;34.688;33.040;2023-07-20T02:30:01;99817.34;;;29.45;61.19
49377;BME280;35253;34.688;33.040;2023-07-20T02:32:28;99818.06;;;29.40;58.37
49377;BME280;35253;34.688;33.040;2023-07-20T02:34:53;99814.09;;;29.36;58.83
49377;BME280;35253;34.688;33.040;2023-07-20T02:37:19;99817.84;;;29.42;59.99
49377;BME280;35253;34.688;33.040;2023-07-20T02:39:44;99821.19;;;29.44;60.30
49377;BME280;35253;34.688;33.040;2023-07-20T02:42:10;99827.28;;;29.46;60.78
49377;BME280;35253;34.688;33.040;2023-07-20T02:44:36;99827.13;;;29.41;61.86
49377;BME280;35253;34.688;33.040;2023-07-20T02:47:02;99827.28;;;29.46;62.64
49377;BME280;35253;34.688;33.040;2023-07-20T02:49:27;99831.72;;;29.29;62.34
49377;BME280;35253;34.688;33.040;2023-07-20T02:51:53;99833.13;;;29.20;63.22
49377;BME280;35253;34.688;33.040;2023-07-20T02:54:19;99837.84;;;28.83;65.56
49377;BME280;35253;34.688;33.040;2023-07-20T02:56:45;99841.22;;;28.96;65.34
49377;BME280;35253;34.688;33.040;2023-07-20T02:59:11;99846.25;;;29.18;64.25
49377;BME280;35253;34.688;33.040;2023-07-20T03:01:36;99842.88;;;29.16;64.47
49377;BME280;35253;34.688;33.040;2023-07-20T03:04:02;99847.91;;;29.19;64.87
49377;BME280;35253;34.688;33.040;2023-07-20T03:06:29;99842.16;;;29.08;64.03
49377;BME280;35253;34.688;33.040;2023-07-20T03:08:55;99845.63;;;29.16;63.81
49377;BME280;35253;34.688;33.040;2023-07-20T03:11:20;99855.84;;;29.27;63.76
49377;BME280;35253;34.688;33.040;2023-07-20T03:13:47;99855.78;;;29.33;63.48
49377;BME280;35253;34.688;33.040;2023-07-20T03:16:13;99863.69;;;29.41;61.70
49377;BME280;35253;34.688;33.040;2023-07-20T03:18:43;99868.47;;;29.28;61.36
49377;BME280;35253;34.688;33.040;2023-07-20T03:21:10;99859.34;;;29.34;60.27
49377;BME280;35253;34.688;33.040;2023-07-20T03:23:39;99867.63;;;29.27;60.64
49377;BME280;35253;34.688;33.040;2023-07-20T03:26:06;99870.50;;;29.39;61.41
49377;BME280;35253;34.688;33.040;2023-07-20T03:28:36;99876.72;;;29.46;61.95
49377;BME280;35253;34.688;33.040;2023-07-20T03:31:03;99871.19;;;29.34;62.12
49377;BME280;35253;34.688;33.040;2023-07-20T03:33:30;99873.28;;;29.50;62.22
49377;BME280;35253;34.688;33.040;2023-07-20T03:35:56;99874.41;;;29.61;62.98
49377;BME280;35253;34.688;33.040;2023-07-20T03:38:23;99882.31;;;29.69;63.77
49377;BME280;35253;34.688;33.040;2023-07-20T03:40:55;99878.75;;;29.80;62.94
49377;BME280;35253;34.688;33.040;2023-07-20T03:43:22;99888.13;;;29.91;62.92
49377;BME280;35253;34.688;33.040;2023-07-20T03:45:49;99885.03;;;29.99;63.95
49377;BME280;35253;34.688;33.040;2023-07-20T03:48:21;99888.78;;;30.16;63.09
49377;BME280;35253;34.688;33.040;2023-07-20T03:50:49;99895.97;;;30.29;60.92
49377;BME280;35253;34.688;33.040;2023-07-20T03:53:15;99894.66;;;30.43;58.57
49377;BME280;35253;34.688;33.040;2023-07-20T03:55:45;99896.59;;;30.54;58.38
49377;BME280;35253;34.688;33.040;2023-07-20T03:58:12;99901.28;;;30.65;57.05
49377;BME280;35253;34.688;33.040;2023-07-20T04:00:38;99901.97;;;30.72;56.33
49377;BME280;35253;34.688;33.040;2023-07-20T04:03:03;99900.41;;;30.76;56.21
49377;BME280;35253;34.688;33.040;2023-07-20T04:05:29;99897.31;;;30.84;56.74
49377;BME280;35253;34.688;33.040;2023-07-20T04:07:55;99900.16;;;30.89;57.04
49377;BME280;35253;34.688;33.040;2023-07-20T04:10:20;99892.00;;;30.95;57.08
49377;BME280;35253;34.688;33.040;2023-07-20T04:12:46;99899.94;;;31.03;57.31
49377;BME280;35253;34.688;33.040;2023-07-20T04:15:15;99906.16;;;31.10;57.99
49377;BME280;35253;34.688;33.040;2023-07-20T04:17:41;99909.59;;;31.17;59.71
49377;BME280;35253;34.688;33.040;2023-07-20T04:20:07;99907.06;;;31.27;60.84
49377;BME280;35253;34.688;33.040;2023-07-20T04:22:34;99909.09;;;31.31;62.30
49377;BME280;35253;34.688;33.040;2023-07-20T04:24:59;99915.16;;;31.45;62.88
49377;BME280;35253;34.688;33.040;2023-07-20T04:27:25;99911.41;;;31.51;62.34
49377;BME280;35253;34.688;33.040;2023-07-20T04:29:51;99916.44;;;31.54;60.77
49377;BME280;35253;34.688;33.040;2023-07-20T04:32:17;99916.16;;;31.27;61.13
49377;BME280;35253;34.688;33.040;2023-07-20T04:34:43;99917.41;;;31.20;61.96
49377;BME280;35253;34.688;33.040;2023-07-20T04:37:08;99919.78;;;31.16;64.44
49377;BME280;35253;34.688;33.040;2023-07-20T04:39:34;99927.91;;;31.00;65.13
49377;BME280;35253;34.688;33.040;2023-07-20T04:42:00;99932.47;;;31.17;65.26
49377;BME280;35253;34.688;33.040;2023-07-20T04:44:25;99928.03;;;31.16;65.86
49377;BME280;35253;34.688;33.040;2023-07-20T04:46:51;99944.81;;;31.15;66.35
49377;BME280;35253;34.688;33.040;2023-07-20T04:49:16;99933.69;;;31.10;67.49
49377;BME280;35253;34.688;33.040;2023-07-20T04:51:42;99935.78;;;31.31;67.60
49377;BME280;35253;34.688;33.040;2023-07-20T04:54:08;99932.09;;;31.65;68.37
49377;BME280;35253;34.688;33.040;2023-07-20T04:56:33;99942.47;;;31.58;71.00
49377;BME280;35253;34.688;33.040;2023-07-20T04:58:59;99955.38;;;31.86;72.56
49377;BME280;35253;34.688;33.040;2023-07-20T05:01:25;99945.06;;;31.93;72.21
49377;BME280;35253;34.688;33.040;2023-07-20T05:03:52;99950.13;;;32.13;72.95
49377;BME280;35253;34.688;33.040;2023-07-20T05:06:18;99955.66;;;31.85;76.55
49377;BME280;35253;34.688;33.040;2023-07-20T05:08:44;99959.88;;;31.75;79.76
49377;BME280;35253;34.688;33.040;2023-07-20T05:11:10;99962.28;;;32.00;79.92
49377;BME280;35253;34.688;33.040;2023-07-20T05:13:36;99970.38;;;32.18;80.49
49377;BME280;35253;34.688;33.040;2023-07-20T05:16:02;99962.00;;;32.30;82.45
49377;BME280;35253;34.688;33.040;2023-07-20T05:18:28;99969.06;;;32.38;83.96
49377;BME280;35253;34.688;33.040;2023-07-20T05:20:53;99964.78;;;32.47;84.61
49377;BME280;35253;34.688;33.040;2023-07-20T05:23:20;99966.50;;;32.65;87.44
49377;BME280;35253;34.688;33.040;2023-07-20T05:25:47;99976.59;;;32.76;89.00
49377;BME280;35253;34.688;33.040;2023-07-20T05:28:13;99975.72;;;32.92;89.09
49377;BME280;35253;34.688;33.040;2023-07-20T05:30:40;99984.25;;;33.07;87.81
49377;BME280;35253;34.688;33.040;2023-07-20T05:33:05;99984.44;;;33.17;89.12
49377;BME280;35253;34.688;33.040;2023-07-20T05:35:31;99980.72;;;33.28;90.24
49377;BME280;35253;34.688;33.040;2023-07-20T05:37:56;99978.03;;;33.33;92.93
49377;BME280;35253;34.688;33.040;2023-07-20T05:40:22;99978.72;;;33.45;93.02
49377;BME280;35253;34.688;33.040;2023-07-20T05:42:48;99983.88;;;33.59;93.02
49377;BME280;35253;34.688;33.040;2023-07-20T05:45:17;99992.31;;;33.69;94.32
49377;BME280;35253;34.688;33.040;2023-07-20T05:47:43;99987.41;;;33.76;96.43
49377;BME280;35253;34.688;33.040;2023-07-20T05:50:10;99985.75;;;33.75;98.42
49377;BME280;35253;34.688;33.040;2023-07-20T05:52:36;99986.69;;;33.64;100.00
49377;BME280;35253;34.688;33.040;2023-07-20T05:55:04;99996.78;;;33.75;100.00
49377;BME280;35253;34.688;33.040;2023-07-20T05:57:30;99995.25;;;33.84;100.00
49377;BME280;35253;34.688;33.040;2023-07-20T05:59:55;99988.56;;;33.80;100.00
49377;BME280;35253;34.688;33.040;2023-07-20T06:02:21;99987.53;;;33.86;100.00
49377;BME280;35253;34.688;33.040;2023-07-20T06:04:47;99990.31;;;33.86;100.00
49377;BME280;35253;34.688;33.040;2023-07-20T06:07:12;99989.84;;;33.94;100.00
49377;BME280;35253;34.688;33.040;2023-07-20T06:09:38;99978.16;;;33.87;100.00
49377;BME280;35253;34.688;33.040;2023-07-20T06:12:04;99988.69;;;33.90;100.00
49377;BME280;35253;34.688;33.040;2023-07-20T06:14:30;99990.78;;;34.05;100.00
49377;BME280;35253;34.688;33.040;2023-07-20T06:16:56;99980.56;;;33.62;100.00
49377;BME280;35253;34.688;33.040;2023-07-20T06:19:22;99982.00;;;33.86;100.00
49377;BME280;35253;34.688;33.040;2023-07-20T06:21:50;99984.25;;;33.89;100.00
49377;BME280;35253;34.688;33.040;2023-07-20T06:24:17;99991.63;;;34.05;100.00
49377;BME280;35253;34.688;33.040;2023-07-20T06:26:42;99986.19;;;34.15;100.00
49377;BME280;35253;34.688;33.040;2023-07-20T06:29:08;99992.47;;;34.32;100.00
49377;BME280;35253;34.688;33.040;2023-07-20T06:31:36;99989.75;;;34.37;100.00
49377;BME280;35253;34.688;33.040;2023-07-20T06:34:03;99997.16;;;34.32;100.00
49377;BME280;35253;34.688;33.040;2023-07-20T06:36:28;99993.59;;;34.36;100.00
49377;BME280;35253;34.688;33.040;2023-07-20T06:38:55;99987.03;;;34.43;100.00
49377;BME280;35253;34.688;33.040;2023-07-20T06:41:20;99991.47;;;33.68;100.00
49377;BME280;35253;34.688;33.040;2023-07-20T06:43:47;99995.91;;;33.91;100.00
49377;BME280;35253;34.688;33.040;2023-07-20T06:46:12;99984.13;;;32.63;100.00
49377;BME280;35253;34.688;33.040;2023-07-20T06:48:38;99979.28;;;33.09;100.00
49377;BME280;35253;34.688;33.040;2023-07-20T06:51:04;99982.78;;;33.60;100.00
49377;BME280;35253;34.688;33.040;2023-07-20T06:53:30;99989.16;;;33.82;100.00
49377;BME280;35253;34.688;33.040;2023-07-20T06:55:56;99994.97;;;32.87;100.00
49377;BME280;35253;34.688;33.040;2023-07-20T06:58:24;99994.66;;;32.67;100.00
49377;BME280;35253;34.688;33.040;2023-07-20T07:00:51;99989.44;;;32.53;100.00
49377;BME280;35253;34.688;33.040;2023-07-20T07:03:16;99982.50;;;32.34;100.00
49377;BME280;35253;34.688;33.040;2023-07-20T07:05:43;99991.69;;;32.23;100.00
49377;BME280;35253;34.688;33.040;2023-07-20T07:08:10;99981.25;;;32.92;100.00
49377;BME280;35253;34.688;33.040;2023-07-20T07:10:36;99990.41;;;33.52;100.00
49377;BME280;35253;34.688;33.040;2023-07-20T07:13:02;99991.25;;;33.75;100.00
49377;BME280;35253;34.688;33.040;2023-07-20T07:15:28;99998.41;;;33.71;100.00
49377;BME280;35253;34.688;33.040;2023-07-20T07:17:54;99999.88;;;34.00;100.00
49377;BME280;35253;34.688;33.040;2023-07-20T07:20:20;100005.44;;;33.62;100.00
49377;BME280;35253;34.688;33.040;2023-07-20T07:22:46;100007.06;;;34.01;100.00
49377;BME280;35253;34.688;33.040;2023-07-20T07:25:12;100013.84;;;34.15;100.00
49377;BME280;35253;34.688;33.040;2023-07-20T07:27:38;100017.44;;;34.37;100.00
49377;BME280;35253;34.688;33.040;2023-07-20T07:30:04;100012.97;;;34.36;100.00
49377;BME280;35253;34.688;33.040;2023-07-20T07:32:30;100018.38;;;34.48;100.00
49377;BME280;35253;34.688;33.040;2023-07-20T07:34:56;100026.88;;;34.42;100.00
49377;BME280;35253;34.688;33.040;2023-07-20T07:37:24;100028.59;;;34.48;100.00
49377;BME280;35253;34.688;33.040;2023-07-20T07:39:50;100023.69;;;34.55;100.00
49377;BME280;35253;34.688;33.040;2023-07-20T07:42:15;100027.47;;;34.44;100.00
49377;BME280;35253;34.688;33.040;2023-07-20T07:44:41;100024.31;;;33.65;100.00
49377;BME280;35253;34.688;33.040;2023-07-20T07:47:07;100023.69;;;33.19;100.00
49377;BME280;35253;34.688;33.040;2023-07-20T07:49:32;100021.63;;;33.31;100.00
49377;BME280;35253;34.688;33.040;2023-07-20T07:51:58;100024.84;;;33.83;100.00
49377;BME280;35253;34.688;33.040;2023-07-20T07:54:24;100030.28;;;34.22;100.00
49377;BME280;35253;34.688;33.040;2023-07-20T07:56:50;100037.31;;;33.09;100.00
49377;BME280;35253;34.688;33.040;2023-07-20T07:59:16;100035.81;;;33.57;100.00
49377;BME280;35253;34.688;33.040;2023-07-20T08:01:42;100037.06;;;34.14;100.00
49377;BME280;35253;34.688;33.040;2023-07-20T08:04:08;100038.47;;;34.38;100.00
49377;BME280;35253;34.688;33.040;2023-07-20T08:06:33;100041.59;;;34.47;100.00
49377;BME280;35253;34.688;33.040;2023-07-20T08:08:59;100042.22;;;34.81;100.00
49377;BME280;35253;34.688;33.040;2023-07-20T08:11:25;100040.66;;;34.95;95.17
49377;BME280;35253;34.688;33.040;2023-07-20T08:13:51;100038.53;;;35.07;87.80
49377;BME280;35253;34.688;33.040;2023-07-20T08:16:17;100034.50;;;33.81;80.96
49377;BME280;35253;34.688;33.040;2023-07-20T08:18:43;100034.78;;;33.63;87.45
49377;BME280;35253;34.688;33.040;2023-07-20T08:21:09;100030.44;;;34.15;85.62
49377;BME280;35253;34.688;33.040;2023-07-20T08:23:35;100020.56;;;34.46;84.32
49377;BME280;35253;34.688;33.040;2023-07-20T08:26:00;100021.09;;;34.43;84.63
49377;BME280;35253;34.688;33.040;2023-07-20T08:28:26;100017.31;;;34.27;83.82
49377;BME280;35253;34.688;33.040;2023-07-20T08:30:52;100017.22;;;34.71;79.36
49377;BME280;35253;34.688;33.040;2023-07-20T08:33:18;100012.97;;;34.31;82.83
49377;BME280;35253;34.688;33.040;2023-07-20T08:35:45;100006.59;;;34.31;78.46
49377;BME280;35253;34.688;33.040;2023-07-20T08:38:11;100009.00;;;34.22;75.10
49377;BME280;35253;34.688;33.040;2023-07-20T08:40:45;100013.56;;;34.38;79.07
49377;BME280;35253;34.688;33.040;2023-07-20T08:43:12;100010.84;;;34.70;82.08
49377;BME280;35253;34.688;33.040;2023-07-20T08:45:39;100006.53;;;35.26;92.39
49377;BME280;35253;34.688;33.040;2023-07-20T08:48:06;100006.56;;;34.58;100.00
49377;BME280;35253;34.688;33.040;2023-07-20T08:50:33;100004.91;;;34.30;100.00
49377;BME280;35253;34.688;33.040;2023-07-20T08:53:00;100013.47;;;34.28;100.00
49377;BME280;35253;34.688;33.040;2023-07-20T08:55:26;100017.00;;;34.51;100.00
49377;BME280;35253;34.688;33.040;2023-07-20T08:57:57;100010.88;;;34.17;100.00
49377;BME280;35253;34.688;33.040;2023-07-20T09:00:24;100020.69;;;34.29;100.00
49377;BME280;35253;34.688;33.040;2023-07-20T09:02:53;100020.84;;;33.96;100.00
49377;BME280;35253;34.688;33.040;2023-07-20T09:05:19;100019.78;;;34.02;100.00
49377;BME280;35253;34.688;33.040;2023-07-20T09:07:45;100017.72;;;34.14;100.00
49377;BME280;35253;34.688;33.040;2023-07-20T09:10:11;100022.06;;;34.05;100.00
49377;BME280;35253;34.688;33.040;2023-07-20T09:12:39;100026.44;;;33.79;100.00
49377;BME280;35253;34.688;33.040;2023-07-20T09:15:06;100017.59;;;33.77;100.00
49377;BME280;35253;34.688;33.040;2023-07-20T09:17:32;100028.34;;;33.74;100.00
49377;BME280;35253;34.688;33.040;2023-07-20T09:19:58;100012.91;;;33.78;100.00
49377;BME280;35253;34.688;33.040;2023-07-20T09:22:31;100007.28;;;33.51;100.00
49377;BME280;35253;34.688;33.040;2023-07-20T09:24:58;100010.28;;;33.49;100.00
49377;BME280;35253;34.688;33.040;2023-07-20T09:27:38;100018.59;;;33.93;100.00
49377;BME280;35253;34.688;33.040;2023-07-20T09:30:05;100020.50;;;34.41;100.00
49377;BME280;35253;34.688;33.040;2023-07-20T09:32:43;100022.09;;;34.10;100.00
49377;BME280;35253;34.688;33.040;2023-07-20T09:35:23;100013.59;;;33.90;100.00
49377;BME280;35253;34.688;33.040;2023-07-20T09:37:59;100023.25;;;33.87;100.00
49377;BME280;35253;34.688;33.040;2023-07-20T09:40:28;100021.88;;;33.90;100.00
49377;BME280;35253;34.688;33.040;2023-07-20T09:42:54;100023.13;;;33.77;100.00
49377;BME280;35253;34.688;33.040;2023-07-20T09:45:30;100024.72;;;33.95;100.00
49377;BME280;35253;34.688;33.040;2023-07-20T09:48:05;100021.59;;;34.13;100.00
49377;BME280;35253;34.688;33.040;2023-07-20T09:50:39;100024.59;;;34.12;100.00
49377;BME280;35253;34.688;33.040;2023-07-20T09:53:07;100025.25;;;33.92;100.00
49377;BME280;35253;34.688;33.040;2023-07-20T09:55:34;100020.22;;;34.16;100.00
49377;BME280;35253;34.688;33.040;2023-07-20T09:58:00;100015.19;;;33.86;100.00
49377;BME280;35253;34.688;33.040;2023-07-20T10:00:26;100025.25;;;33.92;100.00
49377;BME280;35253;34.688;33.040;2023-07-20T10:02:53;100022.53;;;34.51;100.00
49377;BME280;35253;34.688;33.040;2023-07-20T10:05:21;100031.28;;;34.16;100.00
49377;BME280;35253;34.688;33.040;2023-07-20T10:07:49;100025.25;;;34.19;100.00
49377;BME280;35253;34.688;33.040;2023-07-20T10:10:16;100026.44;;;34.55;100.00
49377;BME280;35253;34.688;33.040;2023-07-20T10:12:44;100026.63;;;34.70;100.00
49377;BME280;35253;34.688;33.040;2023-07-20T10:15:24;100030.03;;;34.82;100.00
49377;BME280;35253;34.688;33.040;2023-07-20T10:18:02;100030.28;;;34.49;100.00
49377;BME280;35253;34.688;33.040;2023-07-20T10:20:30;100023.66;;;34.01;100.00
49377;BME280;35253;34.688;33.040;2023-07-20T10:22:57;100012.13;;;33.82;100.00
49377;BME280;35253;34.688;33.040;2023-07-20T10:25:23;100017.34;;;34.59;100.00
49377;BME280;35253;34.688;33.040;2023-07-20T10:27:50;100022.22;;;34.47;100.00
49377;BME280;35253;34.688;33.040;2023-07-20T10:30:17;100014.72;;;34.43;100.00
49377;BME280;35253;34.688;33.040;2023-07-20T10:32:44;100023.69;;;34.55;100.00
49377;BME280;35253;34.688;33.040;2023-07-20T10:35:15;100018.81;;;34.67;100.00
49377;BME280;35253;34.688;33.040;2023-07-20T10:37:47;100021.88;;;34.38;100.00
49377;BME280;35253;34.688;33.040;2023-07-20T10:40:28;100019.81;;;34.56;100.00
49377;BME280;35253;34.688;33.040;2023-07-20T10:43:06;100013.25;;;34.08;100.00
49377;BME280;35253;34.688;33.040;2023-07-20T10:45:45;100008.13;;;33.95;100.00
49377;BME280;35253;34.688;33.040;2023-07-20T10:50:45;100004.50;;;34.16;100.00
49377;BME280;35253;34.688;33.040;2023-07-20T10:53:16;100022.63;;;34.07;100.00
49377;BME280;35253;34.688;33.040;2023-07-20T10:55:42;100002.50;;;33.90;100.00
49377;BME280;35253;34.688;33.040;2023-07-20T10:58:10;100008.22;;;34.32;100.00
49377;BME280;35253;34.688;33.040;2023-07-20T11:00:36;100006.50;;;33.99;100.00
49377;BME280;35253;34.688;33.040;2023-07-20T11:03:03;100013.78;;;34.32;100.00
49377;BME280;35253;34.688;33.040;2023-07-20T11:05:34;100024.22;;;34.25;100.00
49377;BME280;35253;34.688;33.040;2023-07-20T11:08:03;100008.88;;;33.90;100.00
49377;BME280;35253;34.688;33.040;2023-07-20T11:10:28;100014.66;;;33.89;100.00
49377;BME280;35253;34.688;33.040;2023-07-20T11:13:33;100007.41;;;34.10;100.00
49377;BME280;35253;34.688;33.040;2023-07-20T11:18:28;100016.88;;;33.87;100.00
49377;BME280;35253;34.688;33.040;2023-07-20T11:20:54;100007.63;;;33.76;100.00
49377;BME280;35253;34.688;33.040;2023-07-20T11:23:20;100020.72;;;33.86;100.00
49377;BME280;35253;34.688;33.040;2023-07-20T11:25:46;100006.53;;;33.77;100.00
49377;BME280;35253;34.688;33.040;2023-07-20T11:28:12;100003.53;;;33.84;100.00
49377;BME280;35253;34.688;33.040;2023-07-20T11:30:38;100019.31;;;34.05;100.00
49377;BME280;35253;34.688;33.040;2023-07-20T11:33:05;100009.19;;;33.94;100.00
49377;BME280;35253;34.688;33.040;2023-07-20T11:35:35;100013.06;;;33.93;100.00
49377;BME280;35253;34.688;33.040;2023-07-20T11:38:02;100016.22;;;33.80;100.00
49377;BME280;35253;34.688;33.040;2023-07-20T11:40:27;100010.50;;;34.67;100.00
49377;BME280;35253;34.688;33.040;2023-07-20T11:42:53;100021.22;;;34.26;100.00
49377;BME280;35253;34.688;33.040;2023-07-20T11:45:19;100017.28;;;34.22;100.00
49377;BME280;35253;34.688;33.040;2023-07-20T11:47:45;100012.00;;;34.48;100.00
49377;BME280;35253;34.688;33.040;2023-07-20T11:50:11;100011.75;;;34.22;100.00
49377;BME280;35253;34.688;33.040;2023-07-20T11:52:39;100025.19;;;33.87;100.00
49377;BME280;35253;34.688;33.040;2023-07-20T11:55:06;100009.72;;;33.47;100.00
49377;BME280;35253;34.688;33.040;2023-07-20T11:57:32;100001.03;;;34.04;100.00
49377;BME280;35253;34.688;33.040;2023-07-20T12:00:02;100002.28;;;33.70;100.00
49377;BME280;35253;34.688;33.040;2023-07-20T12:02:31;100001.31;;;33.81;100.00
49377;BME280;35253;34.688;33.040;2023-07-20T12:04:58;100002.31;;;34.50;100.00
49377;BME280;35253;34.688;33.040;2023-07-20T12:07:26;100002.56;;;34.44;100.00
49377;BME280;35253;34.688;33.040;2023-07-20T12:10:10;100003.19;;;34.02;100.00
49377;BME280;35253;34.688;33.040;2023-07-20T12:12:43;100000.09;;;33.72;100.00
49377;BME280;35253;34.688;33.040;2023-07-20T12:15:22;99993.59;;;34.36;100.00
49377;BME280;35253;34.688;33.040;2023-07-20T12:17:53;100005.00;;;34.13;100.00
49377;BME280;35253;34.688;33.040;2023-07-20T12:20:30;99997.75;;;33.85;100.00
49377;BME280;35253;34.688;33.040;2023-07-20T12:22:59;99996.03;;;34.06;100.00
49377;BME280;35253;34.688;33.040;2023-07-20T12:28:06;99993.53;;;33.78;100.00
49377;BME280;35253;34.688;33.040;2023-07-20T12:30:32;99988.38;;;33.65;100.00
49377;BME280;35253;34.688;33.040;2023-07-20T12:32:58;99991.25;;;33.75;100.00
49377;BME280;35253;34.688;33.040;2023-07-20T12:35:24;99998.38;;;33.66;100.00
49377;BME280;35253;34.688;33.040;2023-07-20T12:37:50;99984.09;;;33.35;100.00
49377;BME280;35253;34.688;33.040;2023-07-20T12:40:17;99991.63;;;34.05;100.00
49377;BME280;35253;34.688;33.040;2023-07-20T12:42:42;99973.22;;;33.67;100.00
49377;BME280;35253;34.688;33.040;2023-07-20T12:45:08;99983.44;;;33.67;100.00
49377;BME280;35253;34.688;33.040;2023-07-20T12:47:36;99994.09;;;34.28;100.00
49377;BME280;35253;34.688;33.040;2023-07-20T12:50:01;99982.31;;;33.89;100.00
49377;BME280;35253;34.688;33.040;2023-07-20T12:52:29;99978.63;;;34.32;100.00
49377;BME280;35253;34.688;33.040;2023-07-20T12:54:55;99979.19;;;33.81;100.00
49377;BME280;35253;34.688;33.040;2023-07-20T12:57:20;99983.91;;;34.34;100.00